首页
METAR-TAF:

METAR-TAF

机场 :

Fort Bragg, 北卡罗来纳州, 美国

纬度: 35-08N, 经度: 078-56W, 海拔: 74米

当前天气观测

该预报发布于17分钟前的10:56 UTC
风速5节,风向北转东北
温度 3°C
湿度 81%
气压 1027 hPa
能見度: 16.1公里
天空无云

METAR: KFBG 221056Z AUTO 02005KT 10SM CLR 03/00 A3032 RMK AO2 SLP271 T00290001 $

时间: 06:13 (11:13 UTC)

预报

该预报发布于1小时和13分钟前的10:00 UTC
预报有效从22日的 10点(UTC)到 23日的 16点(UTC)
风速6节,风向
能见度10公里或以上
天空无云
成为
从 22日的 14点(UTC)到 22日的 15点(UTC)
风速9节,风向东北
能见度10公里或以上
少量云层高于2500英尺
成为
从 23日的 14点(UTC)到 23日的 15点(UTC)
风速10节,风向东北,有时为15节阵风
能见度10公里或以上
多云层高于2500英尺

TAF: KFBG 221000Z 2210/2316 35006KT 9999 SKC QNH3020INS BECMG 2214/2215 05009KT 9999 FEW025 QNH3036INS BECMG 2314/2315 04010G15KT 9999 BKN025 QNH3038INS TX12/2219Z TN01/2212Z

超过4000个机场的气象观测和天气预报(METAR&TAF报告)。

可查询的气象台以黄色和红色小点在地图上表示。

将鼠标移到小点上方,可查看气象台名称。

然后点击查看天气观测和预报。

如需切换地图:点击带黑十字的绿色按钮放大地图;点击带横线的绿色按钮缩小地图;或者点击绿色箭头查看邻近地区的地图。


METAR-TAF: